sensor_id;sensor_type;location;lat;lon;timestamp;P1;durP1;ratioP1;P2;durP2;ratioP2
9467;SDS011;4772;52.382;9.752;2023-06-10T00:00:49;5.03;;;3.43;;
9467;SDS011;4772;52.382;9.752;2023-06-10T00:03:16;5.63;;;3.27;;
9467;SDS011;4772;52.382;9.752;2023-06-10T00:05:42;5.20;;;3.50;;
9467;SDS011;4772;52.382;9.752;2023-06-10T00:08:08;6.57;;;3.50;;
9467;SDS011;4772;52.382;9.752;2023-06-10T00:10:36;6.40;;;3.70;;
9467;SDS011;4772;52.382;9.752;2023-06-10T00:13:03;4.63;;;3.40;;
9467;SDS011;4772;52.382;9.752;2023-06-10T00:15:30;6.27;;;3.70;;
9467;SDS011;4772;52.382;9.752;2023-06-10T00:17:56;9.67;;;3.63;;
9467;SDS011;4772;52.382;9.752;2023-06-10T00:20:22;5.07;;;3.80;;
9467;SDS011;4772;52.382;9.752;2023-06-10T00:22:49;4.60;;;3.60;;
9467;SDS011;4772;52.382;9.752;2023-06-10T00:25:15;6.30;;;3.83;;
9467;SDS011;4772;52.382;9.752;2023-06-10T00:27:41;6.53;;;3.87;;
9467;SDS011;4772;52.382;9.752;2023-06-10T00:30:07;6.90;;;3.70;;
9467;SDS011;4772;52.382;9.752;2023-06-10T00:32:33;5.30;;;3.73;;
9467;SDS011;4772;52.382;9.752;2023-06-10T00:35:00;4.83;;;3.80;;
9467;SDS011;4772;52.382;9.752;2023-06-10T00:37:26;7.03;;;3.80;;
9467;SDS011;4772;52.382;9.752;2023-06-10T00:39:53;8.77;;;4.07;;
9467;SDS011;4772;52.382;9.752;2023-06-10T00:42:19;8.10;;;4.13;;
9467;SDS011;4772;52.382;9.752;2023-06-10T00:44:47;7.30;;;3.77;;
9467;SDS011;4772;52.382;9.752;2023-06-10T00:47:13;7.60;;;3.80;;
9467;SDS011;4772;52.382;9.752;2023-06-10T00:49:39;5.43;;;3.77;;
9467;SDS011;4772;52.382;9.752;2023-06-10T00:52:06;6.40;;;3.53;;
9467;SDS011;4772;52.382;9.752;2023-06-10T00:54:32;9.40;;;3.93;;
9467;SDS011;4772;52.382;9.752;2023-06-10T00:57:00;6.90;;;3.87;;
9467;SDS011;4772;52.382;9.752;2023-06-10T00:59:26;6.47;;;3.97;;
9467;SDS011;4772;52.382;9.752;2023-06-10T01:01:52;6.77;;;3.60;;
9467;SDS011;4772;52.382;9.752;2023-06-10T01:04:18;7.63;;;3.93;;
9467;SDS011;4772;52.382;9.752;2023-06-10T01:06:51;4.80;;;3.23;;
9467;SDS011;4772;52.382;9.752;2023-06-10T01:09:24;4.43;;;3.40;;
9467;SDS011;4772;52.382;9.752;2023-06-10T01:12:05;6.17;;;4.00;;
9467;SDS011;4772;52.382;9.752;2023-06-10T01:14:36;6.40;;;4.07;;
9467;SDS011;4772;52.382;9.752;2023-06-10T01:17:03;4.97;;;3.60;;
9467;SDS011;4772;52.382;9.752;2023-06-10T01:19:30;6.87;;;4.27;;
9467;SDS011;4772;52.382;9.752;2023-06-10T01:21:56;8.70;;;4.27;;
9467;SDS011;4772;52.382;9.752;2023-06-10T01:24:26;8.13;;;4.10;;
9467;SDS011;4772;52.382;9.752;2023-06-10T01:26:52;8.40;;;4.10;;
9467;SDS011;4772;52.382;9.752;2023-06-10T01:29:21;9.80;;;4.30;;
9467;SDS011;4772;52.382;9.752;2023-06-10T01:34:18;11.63;;;4.70;;
9467;SDS011;4772;52.382;9.752;2023-06-10T01:36:46;7.73;;;4.23;;
9467;SDS011;4772;52.382;9.752;2023-06-10T01:39:13;5.90;;;3.67;;
9467;SDS011;4772;52.382;9.752;2023-06-10T01:41:40;5.80;;;4.40;;
9467;SDS011;4772;52.382;9.752;2023-06-10T01:44:06;6.53;;;4.20;;
9467;SDS011;4772;52.382;9.752;2023-06-10T01:46:32;7.60;;;4.23;;
9467;SDS011;4772;52.382;9.752;2023-06-10T01:48:58;7.17;;;4.30;;
9467;SDS011;4772;52.382;9.752;2023-06-10T01:51:24;10.30;;;4.30;;
9467;SDS011;4772;52.382;9.752;2023-06-10T01:53:50;7.50;;;4.37;;
9467;SDS011;4772;52.382;9.752;2023-06-10T01:56:16;8.43;;;4.93;;
9467;SDS011;4772;52.382;9.752;2023-06-10T01:58:44;6.27;;;4.37;;
9467;SDS011;4772;52.382;9.752;2023-06-10T02:01:10;7.57;;;4.33;;
9467;SDS011;4772;52.382;9.752;2023-06-10T02:03:36;9.90;;;4.27;;
9467;SDS011;4772;52.382;9.752;2023-06-10T02:06:02;7.23;;;4.40;;
9467;SDS011;4772;52.382;9.752;2023-06-10T02:08:29;8.93;;;4.83;;
9467;SDS011;4772;52.382;9.752;2023-06-10T02:10:54;7.57;;;4.30;;
9467;SDS011;4772;52.382;9.752;2023-06-10T02:13:20;11.97;;;4.70;;
9467;SDS011;4772;52.382;9.752;2023-06-10T02:15:46;8.80;;;4.57;;
9467;SDS011;4772;52.382;9.752;2023-06-10T02:18:12;7.60;;;4.40;;
9467;SDS011;4772;52.382;9.752;2023-06-10T02:20:38;8.90;;;4.83;;
9467;SDS011;4772;52.382;9.752;2023-06-10T02:23:04;10.87;;;5.10;;
9467;SDS011;4772;52.382;9.752;2023-06-10T02:25:30;7.00;;;4.30;;
9467;SDS011;4772;52.382;9.752;2023-06-10T02:27:56;8.40;;;4.40;;
9467;SDS011;4772;52.382;9.752;2023-06-10T02:30:22;9.60;;;5.10;;
9467;SDS011;4772;52.382;9.752;2023-06-10T02:32:48;7.47;;;4.87;;
9467;SDS011;4772;52.382;9.752;2023-06-10T02:35:15;8.33;;;5.07;;
9467;SDS011;4772;52.382;9.752;2023-06-10T02:37:42;7.43;;;4.90;;
9467;SDS011;4772;52.382;9.752;2023-06-10T02:40:08;6.03;;;5.17;;
9467;SDS011;4772;52.382;9.752;2023-06-10T02:42:35;10.53;;;4.80;;
9467;SDS011;4772;52.382;9.752;2023-06-10T02:45:01;11.43;;;4.93;;
9467;SDS011;4772;52.382;9.752;2023-06-10T02:47:27;7.60;;;5.20;;
9467;SDS011;4772;52.382;9.752;2023-06-10T02:49:53;8.40;;;5.07;;
9467;SDS011;4772;52.382;9.752;2023-06-10T02:52:19;10.03;;;5.37;;
9467;SDS011;4772;52.382;9.752;2023-06-10T02:54:45;10.40;;;5.37;;
9467;SDS011;4772;52.382;9.752;2023-06-10T02:57:11;10.03;;;5.43;;
9467;SDS011;4772;52.382;9.752;2023-06-10T02:59:39;8.50;;;4.90;;
9467;SDS011;4772;52.382;9.752;2023-06-10T03:02:05;9.10;;;4.97;;
9467;SDS011;4772;52.382;9.752;2023-06-10T03:04:31;8.43;;;5.23;;
9467;SDS011;4772;52.382;9.752;2023-06-10T03:06:57;10.17;;;5.30;;
9467;SDS011;4772;52.382;9.752;2023-06-10T03:09:28;9.30;;;5.50;;
9467;SDS011;4772;52.382;9.752;2023-06-10T03:11:54;8.97;;;5.03;;
9467;SDS011;4772;52.382;9.752;2023-06-10T03:14:20;10.00;;;5.57;;
9467;SDS011;4772;52.382;9.752;2023-06-10T03:16:46;9.20;;;5.50;;
9467;SDS011;4772;52.382;9.752;2023-06-10T03:19:13;9.97;;;5.60;;
9467;SDS011;4772;52.382;9.752;2023-06-10T03:21:39;11.47;;;5.63;;
9467;SDS011;4772;52.382;9.752;2023-06-10T03:24:06;9.60;;;6.33;;
9467;SDS011;4772;52.382;9.752;2023-06-10T03:26:32;9.30;;;6.07;;
9467;SDS011;4772;52.382;9.752;2023-06-10T03:28:58;13.77;;;6.27;;
9467;SDS011;4772;52.382;9.752;2023-06-10T03:31:24;10.03;;;6.17;;
9467;SDS011;4772;52.382;9.752;2023-06-10T03:33:50;10.03;;;5.77;;
9467;SDS011;4772;52.382;9.752;2023-06-10T03:36:16;12.60;;;6.60;;
9467;SDS011;4772;52.382;9.752;2023-06-10T03:38:42;10.47;;;5.80;;
9467;SDS011;4772;52.382;9.752;2023-06-10T03:41:08;9.70;;;5.80;;
9467;SDS011;4772;52.382;9.752;2023-06-10T03:43:34;9.50;;;5.87;;
9467;SDS011;4772;52.382;9.752;2023-06-10T03:46:00;10.40;;;6.20;;
9467;SDS011;4772;52.382;9.752;2023-06-10T03:48:27;13.43;;;5.97;;
9467;SDS011;4772;52.382;9.752;2023-06-10T03:50:53;9.50;;;6.60;;
9467;SDS011;4772;52.382;9.752;2023-06-10T03:53:19;12.17;;;6.70;;
9467;SDS011;4772;52.382;9.752;2023-06-10T03:55:45;10.80;;;5.83;;
9467;SDS011;4772;52.382;9.752;2023-06-10T03:58:11;11.33;;;6.10;;
9467;SDS011;4772;52.382;9.752;2023-06-10T04:00:40;8.77;;;6.17;;
9467;SDS011;4772;52.382;9.752;2023-06-10T04:03:09;11.27;;;7.20;;
9467;SDS011;4772;52.382;9.752;2023-06-10T04:05:39;12.70;;;6.33;;
9467;SDS011;4772;52.382;9.752;2023-06-10T04:08:05;10.37;;;6.50;;
9467;SDS011;4772;52.382;9.752;2023-06-10T04:10:32;8.63;;;5.80;;
9467;SDS011;4772;52.382;9.752;2023-06-10T04:12:58;10.83;;;6.00;;
9467;SDS011;4772;52.382;9.752;2023-06-10T04:15:24;11.27;;;6.27;;
9467;SDS011;4772;52.382;9.752;2023-06-10T04:17:50;10.40;;;6.60;;
9467;SDS011;4772;52.382;9.752;2023-06-10T04:20:17;12.20;;;6.30;;
9467;SDS011;4772;52.382;9.752;2023-06-10T04:22:43;10.50;;;6.70;;
9467;SDS011;4772;52.382;9.752;2023-06-10T04:25:09;11.33;;;5.73;;
9467;SDS011;4772;52.382;9.752;2023-06-10T04:27:35;10.07;;;6.50;;
9467;SDS011;4772;52.382;9.752;2023-06-10T04:30:02;9.37;;;6.73;;
9467;SDS011;4772;52.382;9.752;2023-06-10T04:32:29;9.43;;;6.10;;
9467;SDS011;4772;52.382;9.752;2023-06-10T04:34:55;9.10;;;6.03;;
9467;SDS011;4772;52.382;9.752;2023-06-10T04:37:21;10.20;;;6.53;;
9467;SDS011;4772;52.382;9.752;2023-06-10T04:39:47;11.63;;;6.40;;
9467;SDS011;4772;52.382;9.752;2023-06-10T04:42:13;10.07;;;6.17;;
9467;SDS011;4772;52.382;9.752;2023-06-10T04:44:39;12.90;;;6.27;;
9467;SDS011;4772;52.382;9.752;2023-06-10T04:47:06;10.30;;;6.37;;
9467;SDS011;4772;52.382;9.752;2023-06-10T04:49:33;11.47;;;6.73;;
9467;SDS011;4772;52.382;9.752;2023-06-10T04:51:58;9.43;;;6.30;;
9467;SDS011;4772;52.382;9.752;2023-06-10T04:54:25;13.97;;;6.67;;
9467;SDS011;4772;52.382;9.752;2023-06-10T04:56:51;12.87;;;6.97;;
9467;SDS011;4772;52.382;9.752;2023-06-10T04:59:17;10.17;;;6.07;;
9467;SDS011;4772;52.382;9.752;2023-06-10T05:01:43;12.07;;;6.10;;
9467;SDS011;4772;52.382;9.752;2023-06-10T05:04:08;8.97;;;5.70;;
9467;SDS011;4772;52.382;9.752;2023-06-10T05:06:34;10.90;;;5.60;;
9467;SDS011;4772;52.382;9.752;2023-06-10T05:09:01;11.83;;;6.20;;
9467;SDS011;4772;52.382;9.752;2023-06-10T05:11:27;12.10;;;6.67;;
9467;SDS011;4772;52.382;9.752;2023-06-10T05:13:53;9.33;;;5.70;;
9467;SDS011;4772;52.382;9.752;2023-06-10T05:16:19;11.73;;;6.13;;
9467;SDS011;4772;52.382;9.752;2023-06-10T05:18:46;11.40;;;6.93;;
9467;SDS011;4772;52.382;9.752;2023-06-10T05:21:12;13.80;;;5.90;;
9467;SDS011;4772;52.382;9.752;2023-06-10T05:23:38;9.50;;;6.13;;
9467;SDS011;4772;52.382;9.752;2023-06-10T05:26:04;9.60;;;6.20;;
9467;SDS011;4772;52.382;9.752;2023-06-10T05:28:30;9.50;;;5.97;;
9467;SDS011;4772;52.382;9.752;2023-06-10T05:30:56;12.63;;;6.27;;
9467;SDS011;4772;52.382;9.752;2023-06-10T05:33:22;11.20;;;6.63;;
9467;SDS011;4772;52.382;9.752;2023-06-10T05:35:48;11.77;;;6.17;;
9467;SDS011;4772;52.382;9.752;2023-06-10T05:38:14;11.67;;;6.23;;
9467;SDS011;4772;52.382;9.752;2023-06-10T05:40:41;8.90;;;5.60;;
9467;SDS011;4772;52.382;9.752;2023-06-10T05:43:06;12.70;;;6.00;;
9467;SDS011;4772;52.382;9.752;2023-06-10T05:45:34;14.03;;;6.50;;
9467;SDS011;4772;52.382;9.752;2023-06-10T05:48:00;10.73;;;6.50;;
9467;SDS011;4772;52.382;9.752;2023-06-10T05:50:26;8.00;;;5.73;;
9467;SDS011;4772;52.382;9.752;2023-06-10T05:52:52;9.87;;;6.13;;
9467;SDS011;4772;52.382;9.752;2023-06-10T05:55:19;10.60;;;6.20;;
9467;SDS011;4772;52.382;9.752;2023-06-10T05:57:45;13.97;;;6.30;;
9467;SDS011;4772;52.382;9.752;2023-06-10T06:00:11;8.27;;;5.70;;
9467;SDS011;4772;52.382;9.752;2023-06-10T06:02:38;11.47;;;6.10;;
9467;SDS011;4772;52.382;9.752;2023-06-10T06:05:04;14.37;;;6.17;;
9467;SDS011;4772;52.382;9.752;2023-06-10T06:07:30;11.77;;;6.23;;
9467;SDS011;4772;52.382;9.752;2023-06-10T06:09:56;9.67;;;5.90;;
9467;SDS011;4772;52.382;9.752;2023-06-10T06:12:22;8.67;;;5.80;;
9467;SDS011;4772;52.382;9.752;2023-06-10T06:14:48;9.63;;;5.43;;
9467;SDS011;4772;52.382;9.752;2023-06-10T06:17:14;9.83;;;6.00;;
9467;SDS011;4772;52.382;9.752;2023-06-10T06:19:40;8.33;;;5.57;;
9467;SDS011;4772;52.382;9.752;2023-06-10T06:22:06;7.50;;;5.20;;
9467;SDS011;4772;52.382;9.752;2023-06-10T06:24:32;8.03;;;5.40;;
9467;SDS011;4772;52.382;9.752;2023-06-10T06:26:58;9.07;;;5.70;;
9467;SDS011;4772;52.382;9.752;2023-06-10T06:29:24;11.13;;;5.40;;
9467;SDS011;4772;52.382;9.752;2023-06-10T06:31:50;9.57;;;5.90;;
9467;SDS011;4772;52.382;9.752;2023-06-10T06:34:16;10.33;;;5.23;;
9467;SDS011;4772;52.382;9.752;2023-06-10T06:36:42;10.87;;;5.20;;
9467;SDS011;4772;52.382;9.752;2023-06-10T06:39:08;10.00;;;5.40;;
9467;SDS011;4772;52.382;9.752;2023-06-10T06:41:34;11.70;;;5.67;;
9467;SDS011;4772;52.382;9.752;2023-06-10T06:44:00;13.47;;;5.77;;
9467;SDS011;4772;52.382;9.752;2023-06-10T06:46:27;10.47;;;5.80;;
9467;SDS011;4772;52.382;9.752;2023-06-10T06:48:53;8.80;;;5.30;;
9467;SDS011;4772;52.382;9.752;2023-06-10T06:51:19;7.23;;;5.37;;
9467;SDS011;4772;52.382;9.752;2023-06-10T06:53:45;8.37;;;5.33;;
9467;SDS011;4772;52.382;9.752;2023-06-10T06:56:12;11.00;;;5.60;;
9467;SDS011;4772;52.382;9.752;2023-06-10T06:58:38;7.83;;;5.33;;
9467;SDS011;4772;52.382;9.752;2023-06-10T07:01:04;10.40;;;4.87;;
9467;SDS011;4772;52.382;9.752;2023-06-10T07:03:30;9.63;;;5.80;;
9467;SDS011;4772;52.382;9.752;2023-06-10T07:05:56;10.83;;;5.57;;
9467;SDS011;4772;52.382;9.752;2023-06-10T07:08:22;8.63;;;5.27;;
9467;SDS011;4772;52.382;9.752;2023-06-10T07:10:48;12.07;;;5.50;;
9467;SDS011;4772;52.382;9.752;2023-06-10T07:13:14;11.20;;;5.40;;
9467;SDS011;4772;52.382;9.752;2023-06-10T07:15:40;11.93;;;5.30;;
9467;SDS011;4772;52.382;9.752;2023-06-10T07:18:06;10.20;;;5.73;;
9467;SDS011;4772;52.382;9.752;2023-06-10T07:20:32;9.63;;;5.07;;
9467;SDS011;4772;52.382;9.752;2023-06-10T07:22:58;13.17;;;5.00;;
9467;SDS011;4772;52.382;9.752;2023-06-10T07:25:24;9.17;;;5.73;;
9467;SDS011;4772;52.382;9.752;2023-06-10T07:27:50;8.40;;;4.77;;
9467;SDS011;4772;52.382;9.752;2023-06-10T07:30:16;10.00;;;4.90;;
9467;SDS011;4772;52.382;9.752;2023-06-10T07:32:42;8.60;;;5.33;;
9467;SDS011;4772;52.382;9.752;2023-06-10T07:35:09;8.47;;;5.13;;
9467;SDS011;4772;52.382;9.752;2023-06-10T07:37:36;7.73;;;4.77;;
9467;SDS011;4772;52.382;9.752;2023-06-10T07:40:02;9.77;;;5.30;;
9467;SDS011;4772;52.382;9.752;2023-06-10T07:42:28;8.93;;;5.70;;
9467;SDS011;4772;52.382;9.752;2023-06-10T07:44:54;8.35;;;4.95;;
9467;SDS011;4772;52.382;9.752;2023-06-10T07:47:20;6.80;;;5.15;;
9467;SDS011;4772;52.382;9.752;2023-06-10T07:49:46;7.22;;;4.80;;
9467;SDS011;4772;52.382;9.752;2023-06-10T07:52:12;10.45;;;5.20;;
9467;SDS011;4772;52.382;9.752;2023-06-10T07:54:38;7.82;;;4.68;;
9467;SDS011;4772;52.382;9.752;2023-06-10T07:57:04;8.15;;;4.65;;
9467;SDS011;4772;52.382;9.752;2023-06-10T07:59:31;8.73;;;5.40;;
9467;SDS011;4772;52.382;9.752;2023-06-10T08:01:57;7.75;;;5.00;;
9467;SDS011;4772;52.382;9.752;2023-06-10T08:04:23;10.43;;;5.03;;
9467;SDS011;4772;52.382;9.752;2023-06-10T08:06:49;6.22;;;4.50;;
9467;SDS011;4772;52.382;9.752;2023-06-10T08:09:16;6.30;;;4.57;;
9467;SDS011;4772;52.382;9.752;2023-06-10T08:11:43;9.77;;;5.43;;
9467;SDS011;4772;52.382;9.752;2023-06-10T08:14:09;7.80;;;4.70;;
9467;SDS011;4772;52.382;9.752;2023-06-10T08:16:35;7.47;;;4.65;;
9467;SDS011;4772;52.382;9.752;2023-06-10T08:19:01;7.47;;;4.50;;
9467;SDS011;4772;52.382;9.752;2023-06-10T08:21:27;7.68;;;4.50;;
9467;SDS011;4772;52.382;9.752;2023-06-10T08:23:53;7.28;;;4.53;;
9467;SDS011;4772;52.382;9.752;2023-06-10T08:26:19;10.05;;;5.13;;
9467;SDS011;4772;52.382;9.752;2023-06-10T08:28:45;7.93;;;4.57;;
9467;SDS011;4772;52.382;9.752;2023-06-10T08:31:11;9.25;;;5.28;;
9467;SDS011;4772;52.382;9.752;2023-06-10T08:33:37;6.43;;;5.00;;
9467;SDS011;4772;52.382;9.752;2023-06-10T08:36:03;7.22;;;5.00;;
9467;SDS011;4772;52.382;9.752;2023-06-10T08:38:29;6.72;;;4.78;;
9467;SDS011;4772;52.382;9.752;2023-06-10T08:40:56;8.10;;;4.93;;
9467;SDS011;4772;52.382;9.752;2023-06-10T08:43:22;8.77;;;4.97;;
9467;SDS011;4772;52.382;9.752;2023-06-10T08:45:54;6.45;;;4.43;;
9467;SDS011;4772;52.382;9.752;2023-06-10T08:48:23;7.70;;;4.70;;
9467;SDS011;4772;52.382;9.752;2023-06-10T08:50:49;8.13;;;4.70;;
9467;SDS011;4772;52.382;9.752;2023-06-10T08:53:17;6.00;;;4.55;;
9467;SDS011;4772;52.382;9.752;2023-06-10T08:55:46;6.88;;;4.70;;
9467;SDS011;4772;52.382;9.752;2023-06-10T08:58:16;6.93;;;4.75;;
9467;SDS011;4772;52.382;9.752;2023-06-10T09:00:42;7.22;;;4.68;;
9467;SDS011;4772;52.382;9.752;2023-06-10T09:03:08;5.88;;;4.22;;
9467;SDS011;4772;52.382;9.752;2023-06-10T09:05:34;5.68;;;4.60;;
9467;SDS011;4772;52.382;9.752;2023-06-10T09:08:01;5.38;;;4.60;;
9467;SDS011;4772;52.382;9.752;2023-06-10T09:10:28;6.82;;;4.22;;
9467;SDS011;4772;52.382;9.752;2023-06-10T09:12:54;7.55;;;4.45;;
9467;SDS011;4772;52.382;9.752;2023-06-10T09:15:20;7.40;;;4.88;;
9467;SDS011;4772;52.382;9.752;2023-06-10T09:17:46;6.72;;;4.60;;
9467;SDS011;4772;52.382;9.752;2023-06-10T09:20:12;7.72;;;4.43;;
9467;SDS011;4772;52.382;9.752;2023-06-10T09:22:38;7.28;;;4.63;;
9467;SDS011;4772;52.382;9.752;2023-06-10T09:25:05;6.82;;;4.45;;
9467;SDS011;4772;52.382;9.752;2023-06-10T09:27:33;6.47;;;4.25;;
9467;SDS011;4772;52.382;9.752;2023-06-10T09:30:09;7.15;;;4.53;;
9467;SDS011;4772;52.382;9.752;2023-06-10T09:32:38;5.07;;;4.45;;
9467;SDS011;4772;52.382;9.752;2023-06-10T09:35:08;5.78;;;4.50;;
9467;SDS011;4772;52.382;9.752;2023-06-10T09:37:35;5.53;;;4.32;;
9467;SDS011;4772;52.382;9.752;2023-06-10T09:40:07;4.85;;;4.22;;
9467;SDS011;4772;52.382;9.752;2023-06-10T09:42:35;7.25;;;4.60;;
9467;SDS011;4772;52.382;9.752;2023-06-10T09:45:05;6.03;;;3.97;;
9467;SDS011;4772;52.382;9.752;2023-06-10T09:47:31;6.13;;;4.03;;
9467;SDS011;4772;52.382;9.752;2023-06-10T09:49:57;5.60;;;4.35;;
9467;SDS011;4772;52.382;9.752;2023-06-10T09:52:24;7.70;;;4.85;;
9467;SDS011;4772;52.382;9.752;2023-06-10T09:54:53;5.70;;;4.25;;
9467;SDS011;4772;52.382;9.752;2023-06-10T09:57:20;4.85;;;3.97;;
9467;SDS011;4772;52.382;9.752;2023-06-10T09:59:46;7.50;;;4.72;;
9467;SDS011;4772;52.382;9.752;2023-06-10T10:02:13;6.88;;;4.72;;
9467;SDS011;4772;52.382;9.752;2023-06-10T10:04:39;6.70;;;4.70;;
9467;SDS011;4772;52.382;9.752;2023-06-10T10:07:05;7.72;;;4.45;;
9467;SDS011;4772;52.382;9.752;2023-06-10T10:09:33;8.55;;;4.53;;
9467;SDS011;4772;52.382;9.752;2023-06-10T10:11:59;6.35;;;4.50;;
9467;SDS011;4772;52.382;9.752;2023-06-10T10:14:28;7.68;;;4.50;;
9467;SDS011;4772;52.382;9.752;2023-06-10T10:16:57;5.20;;;4.43;;
9467;SDS011;4772;52.382;9.752;2023-06-10T10:19:27;5.65;;;4.55;;
9467;SDS011;4772;52.382;9.752;2023-06-10T10:21:55;6.25;;;4.30;;
9467;SDS011;4772;52.382;9.752;2023-06-10T10:24:23;5.07;;;4.03;;
9467;SDS011;4772;52.382;9.752;2023-06-10T10:26:51;7.05;;;4.35;;
9467;SDS011;4772;52.382;9.752;2023-06-10T10:29:24;6.22;;;4.30;;
9467;SDS011;4772;52.382;9.752;2023-06-10T10:31:54;8.57;;;4.68;;
9467;SDS011;4772;52.382;9.752;2023-06-10T10:34:29;6.45;;;4.80;;
9467;SDS011;4772;52.382;9.752;2023-06-10T10:36:56;6.68;;;4.43;;
9467;SDS011;4772;52.382;9.752;2023-06-10T10:39:22;5.88;;;4.47;;
9467;SDS011;4772;52.382;9.752;2023-06-10T10:41:49;6.18;;;4.82;;
9467;SDS011;4772;52.382;9.752;2023-06-10T10:44:15;7.25;;;4.40;;
9467;SDS011;4772;52.382;9.752;2023-06-10T10:46:42;7.38;;;4.55;;
9467;SDS011;4772;52.382;9.752;2023-06-10T10:49:09;6.63;;;4.47;;
9467;SDS011;4772;52.382;9.752;2023-06-10T10:51:36;6.35;;;4.45;;
9467;SDS011;4772;52.382;9.752;2023-06-10T10:54:14;7.20;;;4.80;;
9467;SDS011;4772;52.382;9.752;2023-06-10T10:59:24;7.30;;;4.65;;
9467;SDS011;4772;52.382;9.752;2023-06-10T11:01:50;10.15;;;4.70;;
9467;SDS011;4772;52.382;9.752;2023-06-10T11:04:17;7.15;;;4.72;;
9467;SDS011;4772;52.382;9.752;2023-06-10T11:06:53;6.18;;;4.63;;
9467;SDS011;4772;52.382;9.752;2023-06-10T11:09:26;7.63;;;4.85;;
9467;SDS011;4772;52.382;9.752;2023-06-10T11:11:53;5.68;;;4.60;;
9467;SDS011;4772;52.382;9.752;2023-06-10T11:14:27;6.35;;;4.93;;
9467;SDS011;4772;52.382;9.752;2023-06-10T11:16:53;8.10;;;5.40;;
9467;SDS011;4772;52.382;9.752;2023-06-10T11:19:31;6.72;;;5.10;;
9467;SDS011;4772;52.382;9.752;2023-06-10T11:22:02;6.45;;;5.03;;
9467;SDS011;4772;52.382;9.752;2023-06-10T11:24:29;5.57;;;4.90;;
9467;SDS011;4772;52.382;9.752;2023-06-10T11:26:55;7.15;;;5.20;;
9467;SDS011;4772;52.382;9.752;2023-06-10T11:29:54;7.30;;;5.57;;
9467;SDS011;4772;52.382;9.752;2023-06-10T11:32:20;10.27;;;5.13;;
9467;SDS011;4772;52.382;9.752;2023-06-10T11:34:51;5.88;;;5.25;;
9467;SDS011;4772;52.382;9.752;2023-06-10T11:37:18;7.60;;;5.35;;
9467;SDS011;4772;52.382;9.752;2023-06-10T11:39:44;8.15;;;5.28;;
9467;SDS011;4772;52.382;9.752;2023-06-10T11:42:10;7.63;;;5.15;;
9467;SDS011;4772;52.382;9.752;2023-06-10T11:44:37;5.93;;;5.22;;
9467;SDS011;4772;52.382;9.752;2023-06-10T11:47:03;8.13;;;5.97;;
9467;SDS011;4772;52.382;9.752;2023-06-10T11:49:29;6.07;;;5.38;;
9467;SDS011;4772;52.382;9.752;2023-06-10T11:51:55;5.85;;;5.35;;
9467;SDS011;4772;52.382;9.752;2023-06-10T11:54:21;10.10;;;5.90;;
9467;SDS011;4772;52.382;9.752;2023-06-10T11:56:47;5.30;;;4.80;;
9467;SDS011;4772;52.382;9.752;2023-06-10T11:59:13;7.25;;;5.32;;
9467;SDS011;4772;52.382;9.752;2023-06-10T12:01:43;5.97;;;5.32;;
9467;SDS011;4772;52.382;9.752;2023-06-10T12:04:10;8.00;;;5.65;;
9467;SDS011;4772;52.382;9.752;2023-06-10T12:06:46;5.88;;;5.28;;
9467;SDS011;4772;52.382;9.752;2023-06-10T12:09:19;6.97;;;6.10;;
9467;SDS011;4772;52.382;9.752;2023-06-10T12:11:46;8.75;;;5.60;;
9467;SDS011;4772;52.382;9.752;2023-06-10T12:14:13;7.53;;;6.07;;
9467;SDS011;4772;52.382;9.752;2023-06-10T12:16:40;7.47;;;5.95;;
9467;SDS011;4772;52.382;9.752;2023-06-10T12:19:06;7.72;;;6.20;;
9467;SDS011;4772;52.382;9.752;2023-06-10T12:21:33;10.68;;;6.20;;
9467;SDS011;4772;52.382;9.752;2023-06-10T12:24:01;6.53;;;5.50;;
9467;SDS011;4772;52.382;9.752;2023-06-10T12:26:34;6.55;;;5.80;;
9467;SDS011;4772;52.382;9.752;2023-06-10T12:29:01;11.45;;;6.00;;
9467;SDS011;4772;52.382;9.752;2023-06-10T12:31:27;6.47;;;5.53;;
9467;SDS011;4772;52.382;9.752;2023-06-10T12:34:07;6.25;;;5.60;;
9467;SDS011;4772;52.382;9.752;2023-06-10T12:36:33;6.55;;;5.90;;
9467;SDS011;4772;52.382;9.752;2023-06-10T12:39:03;6.55;;;5.85;;
9467;SDS011;4772;52.382;9.752;2023-06-10T12:41:29;6.63;;;6.03;;
9467;SDS011;4772;52.382;9.752;2023-06-10T12:43:57;6.85;;;6.18;;
9467;SDS011;4772;52.382;9.752;2023-06-10T12:46:23;6.40;;;5.63;;
9467;SDS011;4772;52.382;9.752;2023-06-10T12:48:49;8.27;;;6.22;;
9467;SDS011;4772;52.382;9.752;2023-06-10T12:51:20;7.30;;;5.93;;
9467;SDS011;4772;52.382;9.752;2023-06-10T12:53:46;7.15;;;5.55;;
9467;SDS011;4772;52.382;9.752;2023-06-10T12:56:12;7.43;;;6.18;;
9467;SDS011;4772;52.382;9.752;2023-06-10T12:58:38;6.20;;;5.60;;
9467;SDS011;4772;52.382;9.752;2023-06-10T13:01:04;6.85;;;5.95;;
9467;SDS011;4772;52.382;9.752;2023-06-10T13:03:30;9.20;;;6.18;;
9467;SDS011;4772;52.382;9.752;2023-06-10T13:05:56;6.50;;;5.90;;
9467;SDS011;4772;52.382;9.752;2023-06-10T13:08:22;6.50;;;5.90;;
9467;SDS011;4772;52.382;9.752;2023-06-10T13:10:48;6.43;;;5.82;;
9467;SDS011;4772;52.382;9.752;2023-06-10T13:13:14;7.20;;;6.13;;
9467;SDS011;4772;52.382;9.752;2023-06-10T13:15:40;6.97;;;6.28;;
9467;SDS011;4772;52.382;9.752;2023-06-10T13:18:06;7.05;;;6.28;;
9467;SDS011;4772;52.382;9.752;2023-06-10T13:20:32;8.57;;;6.00;;
9467;SDS011;4772;52.382;9.752;2023-06-10T13:22:58;6.00;;;5.50;;
9467;SDS011;4772;52.382;9.752;2023-06-10T13:25:24;8.45;;;5.90;;
9467;SDS011;4772;52.382;9.752;2023-06-10T13:27:50;9.82;;;5.63;;
9467;SDS011;4772;52.382;9.752;2023-06-10T13:30:16;6.38;;;5.78;;
9467;SDS011;4772;52.382;9.752;2023-06-10T13:32:42;6.50;;;5.82;;
9467;SDS011;4772;52.382;9.752;2023-06-10T13:35:08;7.68;;;5.80;;
9467;SDS011;4772;52.382;9.752;2023-06-10T13:37:34;6.18;;;5.45;;
9467;SDS011;4772;52.382;9.752;2023-06-10T13:40:01;7.78;;;5.72;;
9467;SDS011;4772;52.382;9.752;2023-06-10T13:42:27;8.20;;;5.63;;
9467;SDS011;4772;52.382;9.752;2023-06-10T13:44:54;6.43;;;5.82;;
9467;SDS011;4772;52.382;9.752;2023-06-10T13:47:21;8.00;;;6.00;;
9467;SDS011;4772;52.382;9.752;2023-06-10T13:49:47;8.57;;;5.88;;
9467;SDS011;4772;52.382;9.752;2023-06-10T13:52:13;6.55;;;5.50;;
9467;SDS011;4772;52.382;9.752;2023-06-10T13:54:39;7.70;;;5.30;;
9467;SDS011;4772;52.382;9.752;2023-06-10T13:57:05;7.28;;;6.00;;
9467;SDS011;4772;52.382;9.752;2023-06-10T13:59:31;6.85;;;6.18;;
9467;SDS011;4772;52.382;9.752;2023-06-10T14:01:57;6.97;;;6.28;;
9467;SDS011;4772;52.382;9.752;2023-06-10T14:04:23;8.02;;;5.78;;
9467;SDS011;4772;52.382;9.752;2023-06-10T14:06:49;6.43;;;5.82;;
9467;SDS011;4772;52.382;9.752;2023-06-10T14:09:15;6.75;;;5.75;;
9467;SDS011;4772;52.382;9.752;2023-06-10T14:11:42;8.30;;;5.85;;
9467;SDS011;4772;52.382;9.752;2023-06-10T14:14:08;9.70;;;6.05;;
9467;SDS011;4772;52.382;9.752;2023-06-10T14:16:35;8.80;;;6.43;;
9467;SDS011;4772;52.382;9.752;2023-06-10T14:19:01;7.13;;;6.28;;
9467;SDS011;4772;52.382;9.752;2023-06-10T14:21:27;8.32;;;5.47;;
9467;SDS011;4772;52.382;9.752;2023-06-10T14:23:53;6.93;;;5.70;;
9467;SDS011;4772;52.382;9.752;2023-06-10T14:26:19;7.53;;;5.78;;
9467;SDS011;4772;52.382;9.752;2023-06-10T14:28:46;7.68;;;6.03;;
9467;SDS011;4772;52.382;9.752;2023-06-10T14:31:12;7.03;;;5.75;;
9467;SDS011;4772;52.382;9.752;2023-06-10T14:33:38;7.80;;;6.32;;
9467;SDS011;4772;52.382;9.752;2023-06-10T14:36:07;7.63;;;6.10;;
9467;SDS011;4772;52.382;9.752;2023-06-10T14:38:33;6.50;;;5.82;;
9467;SDS011;4772;52.382;9.752;2023-06-10T14:40:59;6.72;;;5.70;;
9467;SDS011;4772;52.382;9.752;2023-06-10T14:43:25;8.05;;;6.00;;
9467;SDS011;4772;52.382;9.752;2023-06-10T14:45:51;8.63;;;6.15;;
9467;SDS011;4772;52.382;9.752;2023-06-10T14:48:17;6.97;;;5.38;;
9467;SDS011;4772;52.382;9.752;2023-06-10T14:50:43;6.78;;;5.82;;
9467;SDS011;4772;52.382;9.752;2023-06-10T14:53:11;8.93;;;5.65;;
9467;SDS011;4772;52.382;9.752;2023-06-10T14:55:37;6.43;;;5.80;;
9467;SDS011;4772;52.382;9.752;2023-06-10T14:58:03;6.00;;;5.50;;
9467;SDS011;4772;52.382;9.752;2023-06-10T15:00:29;9.07;;;5.45;;
9467;SDS011;4772;52.382;9.752;2023-06-10T15:02:55;8.98;;;6.15;;
9467;SDS011;4772;52.382;9.752;2023-06-10T15:05:22;6.10;;;5.47;;
9467;SDS011;4772;52.382;9.752;2023-06-10T15:07:50;6.15;;;5.28;;
9467;SDS011;4772;52.382;9.752;2023-06-10T15:10:16;7.10;;;5.85;;
9467;SDS011;4772;52.382;9.752;2023-06-10T15:12:42;7.80;;;5.88;;
9467;SDS011;4772;52.382;9.752;2023-06-10T15:15:08;6.32;;;5.72;;